createdAt,value
2019-03-24T00:02:20.568Z,4.63
2019-03-24T00:05:37.073Z,5.17
2019-03-24T00:08:48.954Z,6.30
2019-03-24T00:12:05.404Z,5.07
2019-03-24T00:15:36.144Z,3.80
2019-03-24T00:18:48.926Z,4.90
2019-03-24T00:25:57.518Z,4.67
2019-03-24T00:29:28.620Z,4.90
2019-03-24T00:39:59.484Z,4.40
2019-03-24T00:44:21.212Z,5.23
2019-03-24T01:02:40.237Z,5.27
2019-03-24T01:05:50.695Z,4.43
2019-03-24T01:09:15.419Z,4.40
2019-03-24T01:12:21.947Z,4.33
2019-03-24T01:16:13.627Z,3.77
2019-03-24T01:19:19.135Z,3.90
2019-03-24T01:22:26.949Z,4.63
2019-03-24T01:26:11.956Z,5.00
2019-03-24T01:33:11.091Z,4.47
2019-03-24T01:36:16.905Z,4.90
2019-03-24T01:39:48.454Z,4.73
2019-03-24T01:43:14.463Z,4.30
2019-03-24T01:47:01.505Z,4.50
2019-03-24T01:50:08.454Z,5.63
2019-03-24T01:53:21.676Z,4.50
2019-03-24T02:04:54.461Z,4.30
2019-03-24T02:08:26.846Z,3.90
2019-03-24T02:12:32.479Z,5.37
2019-03-24T02:20:24.576Z,5.27
2019-03-24T02:42:53.855Z,5.10
2019-03-24T02:45:59.785Z,4.67
2019-03-24T02:49:48.509Z,4.50
2019-03-24T02:53:47.899Z,5.53
2019-03-24T02:57:42.501Z,5.23
2019-03-24T03:05:03.229Z,4.03
2019-03-24T03:08:12.259Z,5.43
2019-03-24T03:11:34.394Z,4.30
2019-03-24T03:14:48.342Z,4.13
2019-03-24T03:21:24.698Z,4.37
2019-03-24T03:24:29.517Z,4.77
2019-03-24T03:27:34.435Z,4.60
2019-03-24T03:30:39.255Z,4.27
2019-03-24T03:33:44.104Z,4.30
2019-03-24T03:36:48.910Z,4.23
2019-03-24T03:39:57.833Z,4.07
2019-03-24T03:43:00.370Z,4.70
2019-03-24T03:46:05.275Z,5.13
2019-03-24T03:49:10.100Z,5.13
2019-03-24T03:52:14.936Z,3.63
2019-03-24T03:55:19.741Z,4.73
2019-03-24T03:58:24.564Z,4.57
2019-03-24T04:01:29.388Z,3.60
2019-03-24T04:04:34.229Z,4.73
2019-03-24T04:07:39.060Z,4.07
2019-03-24T04:10:43.872Z,3.70
2019-03-24T04:13:48.703Z,4.60
2019-03-24T04:17:06.375Z,3.57
2019-03-24T04:20:01.356Z,3.30
2019-03-24T04:23:06.169Z,4.10
2019-03-24T04:26:11.053Z,4.80
2019-03-24T04:29:17.586Z,3.37
2019-03-24T04:32:22.374Z,4.37
2019-03-24T04:35:27.230Z,4.57
2019-03-24T04:38:32.004Z,4.50
2019-03-24T04:41:36.822Z,3.67
2019-03-24T04:44:41.672Z,4.20
2019-03-24T04:47:46.507Z,4.03
2019-03-24T04:50:51.329Z,5.13
2019-03-24T04:53:56.159Z,4.60
2019-03-24T04:57:01.167Z,3.57
2019-03-24T05:00:06.767Z,4.50
2019-03-24T05:03:11.605Z,5.00
2019-03-24T05:06:17.328Z,4.53
2019-03-24T05:09:22.128Z,4.27
2019-03-24T05:12:26.938Z,4.57
2019-03-24T05:15:31.836Z,4.37
2019-03-24T05:18:36.643Z,3.73
2019-03-24T05:21:41.462Z,4.70
2019-03-24T05:24:46.274Z,6.90
2019-03-24T05:27:51.086Z,6.57
2019-03-24T05:30:55.921Z,6.30
2019-03-24T05:34:00.725Z,5.40
2019-03-24T05:37:05.585Z,4.47
2019-03-24T05:40:10.546Z,4.33
2019-03-24T05:43:17.636Z,4.83
2019-03-24T05:46:23.908Z,4.13
2019-03-24T05:49:28.729Z,4.70
2019-03-24T05:52:33.544Z,4.63
2019-03-24T05:55:38.346Z,5.80
2019-03-24T05:58:43.186Z,5.57
2019-03-24T06:01:47.998Z,5.60
2019-03-24T06:04:52.817Z,4.77
2019-03-24T06:07:57.640Z,4.13
2019-03-24T06:11:02.458Z,4.70
2019-03-24T06:14:10.023Z,5.07
2019-03-24T06:17:14.834Z,4.37
2019-03-24T06:20:19.649Z,4.57
2019-03-24T06:23:24.466Z,5.20
2019-03-24T06:26:29.265Z,5.70
2019-03-24T06:29:34.072Z,5.27
2019-03-24T06:32:41.445Z,4.87
2019-03-24T06:35:46.267Z,4.93
2019-03-24T06:38:51.114Z,5.00
2019-03-24T06:41:55.974Z,4.73
2019-03-24T06:45:00.801Z,4.73
2019-03-24T06:48:05.638Z,4.43
2019-03-24T06:51:10.468Z,5.20
2019-03-24T06:54:15.266Z,4.80
2019-03-24T06:57:20.086Z,5.50
2019-03-24T07:00:24.901Z,4.63
2019-03-24T07:03:29.742Z,4.27
2019-03-24T07:06:34.853Z,4.50
2019-03-24T07:09:39.676Z,5.07
2019-03-24T07:12:46.381Z,5.30
2019-03-24T07:15:51.209Z,4.57
2019-03-24T07:18:56.032Z,4.80
2019-03-24T07:22:00.845Z,4.40
2019-03-24T07:25:06.032Z,4.40
2019-03-24T07:28:10.863Z,3.57
2019-03-24T07:31:15.686Z,4.00
2019-03-24T07:34:20.508Z,4.57
2019-03-24T07:37:25.316Z,4.33
2019-03-24T07:40:30.149Z,4.80
2019-03-24T07:43:36.189Z,4.00
2019-03-24T07:46:41.016Z,3.70
2019-03-24T07:49:45.859Z,4.13
2019-03-24T07:52:50.792Z,4.10
2019-03-24T07:55:55.628Z,4.13
2019-03-24T07:59:00.467Z,4.00
2019-03-24T08:02:05.331Z,3.10
2019-03-24T08:05:10.237Z,4.20
2019-03-24T08:08:15.140Z,4.10
2019-03-24T08:11:19.996Z,4.00
2019-03-24T08:14:24.818Z,3.80
2019-03-24T08:17:29.664Z,3.10
2019-03-24T08:20:34.490Z,3.10
2019-03-24T08:23:39.332Z,4.20
2019-03-24T08:26:47.216Z,3.50
2019-03-24T08:29:52.068Z,2.83
2019-03-24T08:32:56.919Z,3.57
2019-03-24T08:36:01.803Z,3.63
2019-03-24T08:39:07.272Z,3.40
2019-03-24T08:42:12.098Z,3.60
2019-03-24T08:45:26.174Z,3.00
2019-03-24T08:48:40.508Z,3.00
2019-03-24T08:51:37.657Z,3.17
2019-03-24T08:54:42.546Z,3.17
2019-03-24T08:57:47.414Z,3.43
2019-03-24T09:00:52.289Z,2.97
2019-03-24T09:03:57.123Z,3.30
2019-03-24T09:07:01.959Z,4.27
2019-03-24T09:10:07.413Z,2.80
2019-03-24T09:13:12.246Z,3.80
2019-03-24T09:16:17.072Z,3.00
2019-03-24T09:19:22.508Z,3.00
2019-03-24T09:22:27.725Z,3.40
2019-03-24T09:25:35.792Z,4.00
2019-03-24T09:28:59.767Z,4.57
2019-03-24T09:32:08.131Z,5.40
2019-03-24T09:35:15.318Z,5.77
2019-03-24T09:38:22.301Z,6.47
2019-03-24T09:41:27.441Z,6.87
2019-03-24T09:44:32.477Z,6.50
2019-03-24T09:47:37.566Z,6.37
2019-03-24T09:50:43.258Z,6.13
2019-03-24T09:53:48.535Z,5.90
2019-03-24T09:56:53.679Z,5.47
2019-03-24T09:59:58.985Z,4.80
2019-03-24T10:03:19.291Z,3.60
2019-03-24T10:06:27.945Z,3.20
2019-03-24T10:10:08.742Z,3.13
2019-03-24T10:13:13.879Z,3.57
2019-03-24T10:20:17.162Z,2.77
2019-03-24T10:23:42.408Z,3.57
2019-03-24T10:26:52.017Z,2.70
2019-03-24T10:30:17.665Z,3.40
2019-03-24T10:33:27.670Z,3.87
2019-03-24T10:36:52.902Z,3.30
2019-03-24T10:51:40.612Z,3.53
2019-03-24T10:54:45.980Z,2.50
2019-03-24T10:57:54.151Z,3.23
2019-03-24T11:01:01.176Z,2.80
2019-03-24T11:04:34.249Z,2.47
2019-03-24T11:07:46.731Z,2.60
2019-03-24T11:11:25.720Z,2.03
2019-03-24T11:22:34.140Z,2.37
2019-03-24T11:25:38.970Z,2.00
2019-03-24T11:28:53.997Z,2.53
2019-03-24T11:36:07.668Z,2.20
2019-03-24T11:39:16.078Z,2.57
2019-03-24T11:42:42.827Z,2.20
2019-03-24T11:45:48.581Z,2.40
2019-03-24T11:48:57.182Z,2.20
2019-03-24T11:52:06.665Z,1.80
2019-03-24T11:55:31.035Z,1.83
2019-03-24T11:58:39.506Z,2.43
2019-03-24T12:02:39.156Z,1.97
2019-03-24T12:06:13.689Z,1.70
2019-03-24T12:13:49.177Z,1.27
2019-03-24T12:16:55.931Z,1.60
2019-03-24T12:20:01.205Z,2.07
2019-03-24T12:23:09.529Z,2.20
2019-03-24T12:26:59.151Z,1.87
2019-03-24T12:30:24.135Z,1.43
2019-03-24T12:34:13.384Z,1.17
2019-03-24T12:38:26.920Z,1.40
2019-03-24T12:41:58.824Z,1.60
2019-03-24T12:45:19.495Z,1.63
2019-03-24T12:48:49.011Z,1.57
2019-03-24T12:52:32.141Z,1.13
2019-03-24T12:55:40.050Z,1.67
2019-03-24T12:58:46.717Z,1.40
2019-03-24T13:02:07.303Z,1.17
2019-03-24T13:09:05.327Z,1.67
2019-03-24T13:16:26.419Z,1.30
2019-03-24T13:23:32.703Z,1.97
2019-03-24T13:34:54.883Z,1.27
2019-03-24T13:38:25.280Z,1.40
2019-03-24T13:41:54.894Z,1.10
2019-03-24T13:45:08.204Z,1.77
2019-03-24T13:48:16.644Z,2.00
2019-03-24T13:51:24.862Z,1.80
2019-03-24T14:02:58.705Z,1.60
2019-03-24T14:06:30.890Z,1.60
2019-03-24T14:09:48.416Z,1.97
2019-03-24T14:13:49.867Z,1.90
2019-03-24T14:17:01.047Z,2.03
2019-03-24T14:20:21.580Z,1.70
2019-03-24T14:23:33.936Z,1.63
2019-03-24T14:26:40.552Z,1.97
2019-03-24T14:30:39.868Z,2.33
2019-03-24T14:34:26.095Z,1.60
2019-03-24T14:37:41.091Z,1.27
2019-03-24T14:41:26.301Z,2.47
2019-03-24T14:44:50.382Z,2.00
2019-03-24T14:48:42.675Z,1.50
2019-03-24T14:51:52.449Z,1.87
2019-03-24T14:54:58.025Z,1.80
2019-03-24T14:58:51.646Z,2.63
2019-03-24T15:01:58.559Z,1.80
2019-03-24T15:05:04.545Z,2.30
2019-03-24T15:08:29.148Z,1.90
2019-03-24T15:16:07.143Z,1.50
2019-03-24T15:19:50.109Z,1.70
2019-03-24T15:22:54.995Z,1.80
2019-03-24T15:26:02.795Z,1.27
2019-03-24T15:29:07.675Z,1.53
2019-03-24T15:32:12.509Z,1.40
2019-03-24T15:35:17.370Z,1.70
2019-03-24T15:38:23.972Z,2.07
2019-03-24T15:41:28.823Z,1.70
2019-03-24T15:44:33.695Z,2.37
2019-03-24T15:47:38.569Z,2.50
2019-03-24T15:50:43.426Z,1.63
2019-03-24T15:53:48.269Z,2.20
2019-03-24T15:56:53.115Z,1.80
2019-03-24T15:59:57.951Z,2.23
2019-03-24T16:03:04.438Z,1.90
2019-03-24T16:06:09.277Z,1.80
2019-03-24T16:09:14.122Z,1.60
2019-03-24T16:12:18.957Z,1.80
2019-03-24T16:15:23.811Z,2.50
2019-03-24T16:18:28.720Z,2.00
2019-03-24T16:21:33.625Z,2.10
2019-03-24T16:24:39.653Z,1.37
2019-03-24T16:27:44.518Z,2.03
2019-03-24T16:30:49.375Z,2.37
2019-03-24T16:33:54.235Z,2.17
2019-03-24T16:36:59.198Z,1.97
2019-03-24T16:40:04.077Z,2.07
2019-03-24T16:43:08.936Z,2.40
2019-03-24T16:46:13.834Z,2.50
2019-03-24T16:49:18.710Z,2.83
2019-03-24T16:52:23.550Z,2.10
2019-03-24T16:55:28.490Z,2.57
2019-03-24T16:58:33.340Z,2.30
2019-03-24T17:01:38.190Z,2.10
2019-03-24T17:04:43.048Z,2.73
2019-03-24T17:07:47.910Z,2.47
2019-03-24T17:10:54.130Z,2.93
2019-03-24T17:13:58.970Z,3.23
2019-03-24T17:17:07.003Z,2.97
2019-03-24T17:20:12.043Z,2.97
2019-03-24T17:23:18.304Z,2.97
2019-03-24T17:26:24.445Z,3.53
2019-03-24T17:29:29.314Z,3.23
2019-03-24T17:32:35.052Z,2.30
2019-03-24T17:35:39.980Z,2.63
2019-03-24T17:38:44.877Z,2.77
2019-03-24T17:41:49.749Z,2.67
2019-03-24T17:44:54.620Z,2.97
2019-03-24T17:47:59.462Z,3.60
2019-03-24T17:51:04.326Z,2.90
2019-03-24T17:54:09.271Z,2.97
2019-03-24T17:57:14.155Z,2.63
2019-03-24T18:00:22.506Z,3.20
2019-03-24T18:03:27.513Z,2.97
2019-03-24T18:06:32.351Z,4.30
2019-03-24T18:09:43.590Z,3.23
2019-03-24T18:12:51.325Z,3.63
2019-03-24T18:15:56.255Z,3.87
2019-03-24T18:19:01.225Z,2.90
2019-03-24T18:22:11.487Z,2.97
2019-03-24T18:25:12.857Z,3.60
2019-03-24T18:28:17.958Z,3.90
2019-03-24T18:31:22.912Z,3.47
2019-03-24T18:34:27.852Z,3.43
2019-03-24T18:37:32.777Z,3.10
2019-03-24T18:40:37.642Z,3.37
2019-03-24T18:43:42.604Z,3.20
2019-03-24T18:46:47.507Z,3.50
2019-03-24T18:49:52.424Z,3.00
2019-03-24T18:52:57.400Z,2.97
2019-03-24T18:56:02.452Z,3.17
2019-03-24T18:59:07.659Z,4.20
2019-03-24T19:02:12.595Z,3.57
2019-03-24T19:05:17.653Z,3.47
2019-03-24T19:08:22.555Z,2.80
2019-03-24T19:11:27.460Z,3.57
2019-03-24T19:14:32.393Z,3.10
2019-03-24T19:17:37.366Z,3.70
2019-03-24T19:20:42.406Z,4.10
2019-03-24T19:23:47.446Z,4.80
2019-03-24T19:26:52.564Z,5.40
2019-03-24T19:29:57.554Z,4.20
2019-03-24T19:33:02.590Z,4.43
2019-03-24T19:36:08.668Z,5.23
2019-03-24T19:39:13.783Z,4.50
2019-03-24T19:42:18.813Z,4.13
2019-03-24T19:45:23.879Z,3.70
2019-03-24T19:48:29.115Z,4.10
2019-03-24T19:51:36.901Z,3.13
2019-03-24T19:54:41.959Z,3.37
2019-03-24T19:57:48.147Z,3.53
2019-03-24T20:00:53.183Z,3.23
2019-03-24T20:03:58.219Z,3.43
2019-03-24T20:07:04.355Z,3.50
2019-03-24T20:10:18.765Z,3.30
2019-03-24T20:13:23.860Z,2.83
2019-03-24T20:16:28.871Z,3.47
2019-03-24T20:19:33.962Z,3.10
2019-03-24T20:22:41.861Z,3.50
2019-03-24T20:25:46.942Z,3.80
2019-03-24T20:28:51.946Z,3.17
2019-03-24T20:31:57.009Z,4.07
2019-03-24T20:35:02.097Z,3.30
2019-03-24T20:38:07.165Z,3.10
2019-03-24T20:41:12.176Z,3.60
2019-03-24T20:44:17.227Z,3.30
2019-03-24T20:47:22.258Z,3.10
2019-03-24T20:50:29.002Z,4.03
2019-03-24T20:53:33.952Z,4.10
2019-03-24T20:59:54.000Z,4.60
2019-03-24T21:02:58.936Z,3.27
2019-03-24T21:06:04.094Z,3.80
2019-03-24T21:09:09.624Z,4.03
2019-03-24T21:12:14.550Z,3.60
2019-03-24T21:15:20.354Z,3.10
2019-03-24T21:18:27.466Z,3.77
2019-03-24T21:21:32.515Z,4.30
2019-03-24T21:24:37.488Z,3.60
2019-03-24T21:27:45.527Z,3.30
2019-03-24T21:30:50.465Z,3.70
2019-03-24T21:33:56.563Z,3.30
2019-03-24T21:37:01.451Z,3.17
2019-03-24T21:40:06.849Z,3.77
2019-03-24T21:43:11.691Z,3.87
2019-03-24T21:46:16.573Z,3.57
2019-03-24T21:49:21.457Z,4.10
2019-03-24T21:52:26.347Z,3.97
2019-03-24T21:55:31.273Z,4.10
2019-03-24T21:58:36.253Z,3.70
2019-03-24T22:01:41.292Z,3.57
2019-03-24T22:04:46.140Z,3.30
2019-03-24T22:07:51.003Z,3.57
2019-03-24T22:10:55.898Z,3.73
2019-03-24T22:14:00.832Z,4.10
2019-03-24T22:17:05.753Z,3.03
2019-03-24T22:20:10.647Z,3.50
2019-03-24T22:23:15.476Z,4.13
2019-03-24T22:26:20.312Z,3.27
2019-03-24T22:29:25.334Z,3.60
2019-03-24T22:32:30.291Z,3.23
2019-03-24T22:35:35.311Z,3.57
2019-03-24T22:38:40.296Z,3.23
2019-03-24T22:41:45.447Z,3.20
2019-03-24T22:44:50.428Z,3.10
2019-03-24T22:47:55.417Z,3.60
2019-03-24T22:51:00.504Z,2.90
2019-03-24T22:54:05.355Z,2.97
2019-03-24T22:57:10.215Z,3.63
2019-03-24T23:00:21.015Z,2.67
2019-03-24T23:03:26.951Z,2.97
2019-03-24T23:06:31.893Z,3.50
2019-03-24T23:09:36.936Z,2.60
2019-03-24T23:12:41.859Z,3.47
2019-03-24T23:15:46.996Z,3.53
2019-03-24T23:18:51.827Z,2.70
2019-03-24T23:21:56.933Z,2.93
2019-03-24T23:25:01.791Z,3.03
2019-03-24T23:28:07.347Z,2.90
2019-03-24T23:31:12.288Z,2.80
2019-03-24T23:34:17.310Z,3.00
2019-03-24T23:37:22.267Z,3.10
2019-03-24T23:40:27.508Z,3.63
2019-03-24T23:43:32.505Z,3.57
2019-03-24T23:46:37.362Z,3.60
2019-03-24T23:49:45.276Z,2.60
2019-03-24T23:52:50.210Z,3.27
2019-03-24T23:55:55.169Z,4.00
2019-03-24T23:59:00.060Z,4.60
